createdAt,value
2018-11-27T00:00:33.650Z,7.40
2018-11-27T00:03:03.803Z,8.60
2018-11-27T00:05:32.891Z,7.30
2018-11-27T00:08:01.194Z,8.30
2018-11-27T00:10:30.461Z,9.33
2018-11-27T00:12:58.766Z,10.47
2018-11-27T00:15:27.011Z,8.10
2018-11-27T00:17:55.318Z,8.57
2018-11-27T00:20:24.326Z,7.80
2018-11-27T00:22:52.563Z,6.70
2018-11-27T00:25:20.802Z,9.63
2018-11-27T00:27:49.045Z,8.77
2018-11-27T00:30:18.518Z,9.35
2018-11-27T00:32:46.778Z,7.00
2018-11-27T00:35:19.476Z,7.63
2018-11-27T00:37:47.732Z,6.73
2018-11-27T00:40:17.787Z,11.77
2018-11-27T00:42:46.104Z,10.10
2018-11-27T00:45:16.411Z,8.70
2018-11-27T00:47:45.621Z,8.53
2018-11-27T00:50:19.783Z,9.33
2018-11-27T00:52:48.037Z,8.17
2018-11-27T00:55:17.859Z,9.10
2018-11-27T00:57:47.185Z,7.37
2018-11-27T01:00:18.524Z,9.40
2018-11-27T01:02:46.936Z,9.57
2018-11-27T01:05:17.367Z,11.03
2018-11-27T01:07:45.847Z,12.53
2018-11-27T01:10:16.163Z,9.70
2018-11-27T01:12:44.469Z,14.07
2018-11-27T01:15:13.682Z,12.83
2018-11-27T01:17:45.131Z,14.80
2018-11-27T01:20:14.613Z,12.90
2018-11-27T01:22:42.842Z,15.23
2018-11-27T01:25:11.442Z,14.97
2018-11-27T01:27:39.704Z,14.00
2018-11-27T01:30:15.415Z,14.97
2018-11-27T01:32:43.684Z,15.65
2018-11-27T01:35:21.150Z,16.53
2018-11-27T01:37:50.333Z,16.73
2018-11-27T01:40:23.543Z,16.53
2018-11-27T01:42:53.929Z,16.48
2018-11-27T01:45:22.717Z,19.07
2018-11-27T01:47:51.317Z,20.50
2018-11-27T01:50:20.162Z,18.30
2018-11-27T01:52:48.694Z,19.10
2018-11-27T01:55:17.919Z,18.43
2018-11-27T01:57:47.621Z,21.97
2018-11-27T02:00:23.366Z,17.60
2018-11-27T02:02:52.199Z,19.57
2018-11-27T02:05:20.677Z,19.70
2018-11-27T02:07:48.989Z,22.30
2018-11-27T02:10:17.244Z,18.93
2018-11-27T02:12:46.425Z,22.23
2018-11-27T02:15:16.046Z,19.80
2018-11-27T02:17:44.303Z,19.43
2018-11-27T02:20:12.704Z,22.53
2018-11-27T02:22:41.273Z,20.37
2018-11-27T02:25:12.227Z,20.53
2018-11-27T02:27:40.908Z,21.63
2018-11-27T02:30:11.174Z,20.33
2018-11-27T02:32:39.447Z,20.77
2018-11-27T02:35:10.347Z,20.73
2018-11-27T02:37:38.642Z,20.33
2018-11-27T02:40:10.159Z,21.37
2018-11-27T02:42:38.450Z,24.10
2018-11-27T02:45:09.181Z,20.53
2018-11-27T02:47:37.853Z,24.23
2018-11-27T02:50:07.937Z,22.10
2018-11-27T02:52:36.322Z,24.85
2018-11-27T02:55:06.560Z,23.63
2018-11-27T02:57:34.844Z,21.27
2018-11-27T03:00:03.099Z,25.87
2018-11-27T03:02:32.271Z,24.23
2018-11-27T03:05:00.574Z,24.70
2018-11-27T03:07:28.859Z,24.33
2018-11-27T03:09:57.119Z,24.27
2018-11-27T03:12:25.358Z,21.03
2018-11-27T03:14:53.627Z,24.60
2018-11-27T03:17:21.903Z,22.17
2018-11-27T03:19:50.227Z,26.62
2018-11-27T03:22:18.450Z,20.47
2018-11-27T03:24:46.715Z,23.83
2018-11-27T03:27:14.929Z,22.13
2018-11-27T03:29:43.199Z,22.53
2018-11-27T03:32:11.415Z,18.60
2018-11-27T03:34:39.697Z,21.67
2018-11-27T03:37:07.923Z,21.30
2018-11-27T03:39:36.231Z,21.57
2018-11-27T03:42:04.840Z,20.40
2018-11-27T03:44:33.116Z,19.20
2018-11-27T03:47:01.459Z,19.50
2018-11-27T03:49:29.739Z,23.03
2018-11-27T03:51:58.922Z,19.87
2018-11-27T03:54:27.184Z,23.53
2018-11-27T03:56:55.443Z,19.80
2018-11-27T03:59:23.690Z,21.47
2018-11-27T04:01:51.952Z,19.13
2018-11-27T04:04:20.218Z,20.47
2018-11-27T04:06:48.471Z,21.23
2018-11-27T04:09:16.733Z,17.80
2018-11-27T04:11:44.987Z,19.13
2018-11-27T04:14:13.246Z,19.33
2018-11-27T04:16:41.486Z,19.23
2018-11-27T04:19:09.776Z,19.90
2018-11-27T04:21:38.043Z,16.73
2018-11-27T04:24:06.632Z,17.03
2018-11-27T04:26:41.451Z,17.03
2018-11-27T04:29:09.692Z,17.73
2018-11-27T04:31:37.940Z,16.87
2018-11-27T04:34:06.218Z,16.60
2018-11-27T04:36:34.449Z,18.93
2018-11-27T04:39:02.769Z,15.73
2018-11-27T04:41:31.036Z,13.27
2018-11-27T04:43:59.272Z,15.00
2018-11-27T04:46:28.533Z,12.47
2018-11-27T04:48:55.808Z,12.40
2018-11-27T04:51:24.099Z,16.17
2018-11-27T04:53:52.342Z,12.85
2018-11-27T04:56:20.629Z,13.43
2018-11-27T04:58:48.938Z,13.00
2018-11-27T05:01:17.244Z,12.30
2018-11-27T05:03:45.476Z,13.83
2018-11-27T05:06:13.699Z,13.83
2018-11-27T05:08:41.922Z,15.17
2018-11-27T05:11:10.189Z,13.90
2018-11-27T05:13:38.445Z,13.80
2018-11-27T05:16:06.662Z,13.10
2018-11-27T05:18:34.974Z,15.40
2018-11-27T05:21:03.351Z,14.75
2018-11-27T05:23:31.634Z,11.23
2018-11-27T05:26:00.637Z,11.27
2018-11-27T05:28:28.878Z,11.80
2018-11-27T05:30:57.122Z,10.03
2018-11-27T05:33:25.355Z,10.60
2018-11-27T05:35:53.586Z,12.03
2018-11-27T05:38:21.859Z,11.47
2018-11-27T05:40:50.080Z,10.47
2018-11-27T05:43:18.306Z,10.90
2018-11-27T05:45:46.874Z,8.83
2018-11-27T05:48:15.138Z,8.53
2018-11-27T05:50:43.427Z,11.17
2018-11-27T05:53:11.682Z,9.97
2018-11-27T05:55:39.914Z,7.70
2018-11-27T05:58:08.200Z,7.87
2018-11-27T06:00:36.458Z,8.08
2018-11-27T06:03:06.130Z,10.23
2018-11-27T06:05:34.396Z,6.77
2018-11-27T06:08:02.628Z,9.00
2018-11-27T06:10:30.843Z,8.13
2018-11-27T06:12:59.088Z,5.20
2018-11-27T06:15:27.315Z,5.50
2018-11-27T06:17:57.796Z,7.70
2018-11-27T06:20:26.033Z,7.10
2018-11-27T06:22:54.674Z,7.63
2018-11-27T06:25:24.918Z,6.43
2018-11-27T06:27:58.190Z,5.07
2018-11-27T06:30:27.439Z,7.50
2018-11-27T06:32:55.663Z,7.27
2018-11-27T06:35:30.402Z,7.10
2018-11-27T06:37:58.640Z,7.87
2018-11-27T06:40:28.259Z,6.90
2018-11-27T06:42:57.215Z,6.03
2018-11-27T06:45:25.442Z,8.90
2018-11-27T06:47:53.885Z,7.53
2018-11-27T06:50:22.730Z,11.27
2018-11-27T06:52:50.962Z,8.20
2018-11-27T06:55:20.375Z,7.00
2018-11-27T06:57:48.633Z,6.73
2018-11-27T07:00:24.455Z,6.10
2018-11-27T07:02:52.736Z,7.33
2018-11-27T07:05:21.018Z,5.23
2018-11-27T07:07:49.253Z,6.43
2018-11-27T07:10:22.554Z,8.63
2018-11-27T07:12:52.145Z,6.10
2018-11-27T07:15:21.571Z,6.60
2018-11-27T07:17:49.804Z,9.50
2018-11-27T07:20:18.034Z,9.17
2018-11-27T07:22:46.238Z,7.33
2018-11-27T07:25:15.233Z,5.83
2018-11-27T07:27:45.765Z,6.43
2018-11-27T07:30:18.167Z,8.00
2018-11-27T07:32:46.459Z,4.63
2018-11-27T07:35:15.359Z,4.67
2018-11-27T07:37:43.687Z,4.03
2018-11-27T07:40:14.441Z,6.20
2018-11-27T07:42:42.746Z,5.40
2018-11-27T07:45:15.424Z,4.80
2018-11-27T07:47:43.683Z,6.30
2018-11-27T07:50:12.644Z,6.07
2018-11-27T07:52:41.002Z,4.73
2018-11-27T07:55:10.727Z,4.17
2018-11-27T07:57:38.989Z,5.77
2018-11-27T08:00:11.015Z,5.03
2018-11-27T08:02:39.487Z,5.73
2018-11-27T08:05:10.219Z,7.77
2018-11-27T08:07:38.613Z,4.53
2018-11-27T08:10:12.930Z,4.83
2018-11-27T08:12:41.168Z,6.30
2018-11-27T08:15:12.603Z,3.73
2018-11-27T08:17:41.290Z,6.30
2018-11-27T08:20:12.858Z,5.30
2018-11-27T08:22:41.214Z,5.17
2018-11-27T08:25:10.768Z,4.37
2018-11-27T08:27:38.998Z,5.43
2018-11-27T08:30:09.867Z,5.10
2018-11-27T08:32:38.118Z,5.07
2018-11-27T08:35:08.199Z,4.67
2018-11-27T08:37:36.456Z,5.67
2018-11-27T08:40:06.719Z,8.07
2018-11-27T08:42:34.954Z,5.17
2018-11-27T08:45:03.174Z,4.50
2018-11-27T08:47:31.495Z,5.70
2018-11-27T08:49:59.761Z,7.60
2018-11-27T08:52:28.082Z,8.50
2018-11-27T08:54:56.329Z,5.60
2018-11-27T08:57:24.571Z,6.17
2018-11-27T08:59:52.885Z,7.80
2018-11-27T09:02:21.146Z,8.10
2018-11-27T09:04:49.407Z,6.53
2018-11-27T09:07:17.647Z,5.37
2018-11-27T09:09:45.935Z,4.30
2018-11-27T09:12:14.189Z,7.00
2018-11-27T09:14:42.430Z,6.13
2018-11-27T09:17:10.648Z,6.27
2018-11-27T09:19:38.883Z,5.90
2018-11-27T09:22:07.139Z,5.77
2018-11-27T09:24:35.415Z,9.63
2018-11-27T09:27:03.643Z,5.63
2018-11-27T09:29:31.876Z,8.17
2018-11-27T09:32:00.116Z,5.33
2018-11-27T09:34:28.594Z,5.10
2018-11-27T09:36:56.673Z,5.83
2018-11-27T09:39:24.932Z,5.57
2018-11-27T09:41:53.182Z,7.20
2018-11-27T09:44:21.436Z,6.60
2018-11-27T09:46:49.681Z,5.63
2018-11-27T09:49:18.502Z,6.33
2018-11-27T09:51:46.765Z,4.67
2018-11-27T09:54:14.998Z,4.40
2018-11-27T09:56:43.278Z,6.07
2018-11-27T09:59:11.540Z,6.97
2018-11-27T10:01:39.807Z,6.20
2018-11-27T10:04:08.060Z,7.70
2018-11-27T10:06:36.298Z,4.17
2018-11-27T10:09:06.098Z,10.30
2018-11-27T10:11:34.354Z,5.83
2018-11-27T10:14:03.135Z,5.87
2018-11-27T10:16:31.395Z,6.53
2018-11-27T10:18:59.999Z,5.50
2018-11-27T10:21:28.257Z,5.67
2018-11-27T10:23:56.502Z,7.43
2018-11-27T10:26:24.785Z,7.57
2018-11-27T10:28:53.022Z,6.43
2018-11-27T10:31:21.627Z,8.80
2018-11-27T10:33:49.913Z,6.77
2018-11-27T10:36:18.151Z,5.27
2018-11-27T10:38:46.493Z,6.83
2018-11-27T10:41:14.749Z,6.63
2018-11-27T10:43:43.978Z,5.93
2018-11-27T10:46:12.231Z,6.57
2018-11-27T10:48:40.519Z,7.20
2018-11-27T10:51:08.766Z,5.10
2018-11-27T10:53:37.015Z,8.70
2018-11-27T10:56:06.362Z,10.17
2018-11-27T10:58:34.615Z,8.27
2018-11-27T11:01:09.721Z,10.37
2018-11-27T11:03:38.019Z,5.40
2018-11-27T11:06:07.241Z,4.30
2018-11-27T11:08:35.466Z,5.17
2018-11-27T11:11:03.704Z,5.03
2018-11-27T11:13:31.975Z,5.17
2018-11-27T11:16:01.035Z,7.03
2018-11-27T11:18:29.308Z,5.27
2018-11-27T11:20:57.603Z,7.23
2018-11-27T11:23:25.898Z,8.97
2018-11-27T11:25:54.164Z,5.13
2018-11-27T11:28:24.397Z,6.20
2018-11-27T11:30:52.700Z,4.23
2018-11-27T11:33:20.963Z,5.00
2018-11-27T11:35:49.250Z,5.40
2018-11-27T11:38:17.495Z,4.20
2018-11-27T11:40:45.792Z,5.87
2018-11-27T11:43:14.057Z,4.97
2018-11-27T11:45:42.317Z,4.90
2018-11-27T11:48:10.574Z,5.13
2018-11-27T11:50:38.830Z,5.50
2018-11-27T11:53:09.928Z,8.13
2018-11-27T11:55:38.167Z,5.37
2018-11-27T11:58:07.204Z,7.03
2018-11-27T12:00:37.869Z,7.57
2018-11-27T12:03:07.198Z,6.97
2018-11-27T12:05:36.089Z,6.30
2018-11-27T12:08:05.482Z,5.53
2018-11-27T12:10:33.887Z,7.10
2018-11-27T12:13:02.146Z,5.97
2018-11-27T12:15:30.383Z,8.37
2018-11-27T12:17:58.629Z,6.37
2018-11-27T12:20:26.900Z,6.67
2018-11-27T12:22:55.767Z,4.83
2018-11-27T12:25:24.493Z,6.07
2018-11-27T12:27:52.466Z,4.67
2018-11-27T12:30:22.258Z,4.37
2018-11-27T12:32:50.871Z,7.83
2018-11-27T12:35:19.646Z,7.07
2018-11-27T12:37:48.871Z,4.43
2018-11-27T12:40:20.303Z,6.40
2018-11-27T12:42:48.723Z,5.43
2018-11-27T12:45:32.966Z,6.07
2018-11-27T12:48:02.262Z,7.00
2018-11-27T12:50:34.460Z,6.97
2018-11-27T12:53:02.784Z,5.03
2018-11-27T12:55:31.021Z,6.13
2018-11-27T12:57:59.265Z,4.17
2018-11-27T13:00:27.522Z,4.97
2018-11-27T13:02:55.766Z,5.00
2018-11-27T13:05:28.082Z,6.47
2018-11-27T13:07:59.946Z,6.10
2018-11-27T13:10:28.212Z,5.40
2018-11-27T13:12:56.481Z,5.87
2018-11-27T13:15:24.734Z,4.77
2018-11-27T13:17:53.687Z,5.70
2018-11-27T13:20:21.994Z,4.90
2018-11-27T13:22:50.872Z,8.10
2018-11-27T13:25:22.563Z,9.60
2018-11-27T13:27:51.963Z,6.03
2018-11-27T13:30:39.019Z,4.57
2018-11-27T13:33:13.077Z,5.20
2018-11-27T13:35:41.354Z,5.73
2018-11-27T13:38:09.595Z,5.93
2018-11-27T13:40:38.779Z,6.43
2018-11-27T13:43:08.205Z,5.80
2018-11-27T13:45:37.281Z,5.83
2018-11-27T13:48:06.669Z,7.73
2018-11-27T13:50:35.785Z,6.23
2018-11-27T13:53:04.011Z,4.87
2018-11-27T13:55:32.260Z,5.40
2018-11-27T13:58:00.513Z,6.20
2018-11-27T14:00:28.776Z,7.50
2018-11-27T14:02:57.067Z,7.87
2018-11-27T14:05:25.811Z,5.00
2018-11-27T14:07:54.065Z,5.07
2018-11-27T14:10:22.337Z,5.53
2018-11-27T14:12:50.594Z,5.00
2018-11-27T14:15:21.750Z,5.33
2018-11-27T14:17:50.618Z,7.40
2018-11-27T14:20:18.862Z,6.70
2018-11-27T14:22:47.966Z,5.83
2018-11-27T14:25:16.363Z,10.20
2018-11-27T14:27:45.261Z,8.27
2018-11-27T14:30:16.606Z,5.77
2018-11-27T14:32:45.310Z,5.30
2018-11-27T14:35:14.383Z,5.77
2018-11-27T14:37:43.059Z,8.00
2018-11-27T14:40:13.537Z,5.90
2018-11-27T14:42:41.884Z,7.30
2018-11-27T14:45:16.382Z,6.40
2018-11-27T14:47:45.738Z,6.23
2018-11-27T14:50:14.010Z,8.03
2018-11-27T14:52:42.262Z,5.93
2018-11-27T14:55:15.610Z,6.80
2018-11-27T14:57:43.908Z,4.70
2018-11-27T15:00:17.255Z,7.30
2018-11-27T15:02:45.557Z,6.17
2018-11-27T15:05:16.068Z,7.37
2018-11-27T15:07:44.354Z,5.83
2018-11-27T15:10:13.094Z,7.27
2018-11-27T15:12:41.382Z,5.90
2018-11-27T15:15:11.483Z,3.90
2018-11-27T15:17:39.962Z,4.90
2018-11-27T15:20:12.116Z,7.63
2018-11-27T15:22:40.380Z,5.03
2018-11-27T15:25:08.856Z,6.40
2018-11-27T15:27:37.350Z,5.63
2018-11-27T15:30:14.394Z,8.57
2018-11-27T15:32:42.673Z,5.07
2018-11-27T15:35:11.925Z,6.57
2018-11-27T15:37:40.260Z,5.87
2018-11-27T15:40:12.534Z,4.10
2018-11-27T15:42:41.091Z,6.73
2018-11-27T15:45:11.356Z,7.60
2018-11-27T15:47:39.693Z,5.03
2018-11-27T15:50:09.089Z,4.93
2018-11-27T15:52:37.359Z,5.90
2018-11-27T15:55:16.527Z,11.20
2018-11-27T15:57:45.210Z,4.53
2018-11-27T16:00:14.778Z,5.30
2018-11-27T16:02:43.475Z,4.53
2018-11-27T16:05:12.231Z,5.43
2018-11-27T16:07:40.645Z,4.40
2018-11-27T16:10:10.889Z,5.93
2018-11-27T16:12:39.259Z,4.70
2018-11-27T16:15:16.585Z,5.33
2018-11-27T16:17:44.975Z,4.00
2018-11-27T16:20:16.334Z,5.93
2018-11-27T16:22:45.618Z,6.70
2018-11-27T16:25:14.912Z,5.27
2018-11-27T16:27:43.289Z,5.80
2018-11-27T16:30:27.844Z,6.43
2018-11-27T16:32:56.147Z,4.73
2018-11-27T16:35:24.540Z,5.53
2018-11-27T16:37:55.766Z,5.60
2018-11-27T16:40:27.062Z,5.20
2018-11-27T16:42:55.332Z,3.70
2018-11-27T16:45:24.396Z,4.03
2018-11-27T16:47:52.922Z,4.70
2018-11-27T16:50:21.366Z,3.97
2018-11-27T16:52:50.447Z,5.73
2018-11-27T16:55:20.938Z,6.00
2018-11-27T16:57:49.258Z,4.43
2018-11-27T17:00:22.340Z,6.40
2018-11-27T17:02:51.922Z,4.30
2018-11-27T17:05:20.288Z,4.83
2018-11-27T17:07:48.568Z,4.87
2018-11-27T17:10:18.677Z,5.80
2018-11-27T17:12:48.336Z,5.30
2018-11-27T17:15:18.650Z,5.90
2018-11-27T17:17:46.981Z,7.47
2018-11-27T17:20:18.809Z,7.57
2018-11-27T17:22:47.137Z,7.27
2018-11-27T17:25:17.571Z,12.67
2018-11-27T17:27:46.036Z,11.47
2018-11-27T17:30:26.737Z,10.83
2018-11-27T17:32:55.954Z,10.40
2018-11-27T17:35:24.908Z,8.97
2018-11-27T17:37:53.235Z,10.20
2018-11-27T17:40:21.667Z,9.30
2018-11-27T17:42:50.247Z,11.83
2018-11-27T17:45:19.244Z,10.00
2018-11-27T17:47:47.541Z,8.77
2018-11-27T17:50:17.003Z,9.93
2018-11-27T17:52:46.059Z,9.40
2018-11-27T17:55:14.572Z,9.67
2018-11-27T17:57:43.006Z,11.00
2018-11-27T18:00:16.650Z,11.20
2018-11-27T18:02:46.888Z,11.07
2018-11-27T18:05:15.284Z,10.27
2018-11-27T18:07:43.731Z,12.00
2018-11-27T18:10:12.233Z,10.70
2018-11-27T18:12:40.869Z,9.97
2018-11-27T18:15:14.478Z,10.27
2018-11-27T18:17:42.915Z,13.27
2018-11-27T18:20:12.338Z,11.63
2018-11-27T18:22:40.973Z,11.00
2018-11-27T18:25:12.310Z,11.80
2018-11-27T18:27:41.490Z,10.10
2018-11-27T18:30:18.474Z,10.10
2018-11-27T18:32:46.952Z,11.03
2018-11-27T18:35:18.775Z,9.97
2018-11-27T18:37:49.441Z,11.20
2018-11-27T18:40:19.094Z,14.43
2018-11-27T18:42:47.648Z,12.87
2018-11-27T18:45:32.468Z,12.47
2018-11-27T18:48:01.543Z,12.07
2018-11-27T18:50:31.523Z,12.13
2018-11-27T18:53:02.827Z,11.97
2018-11-27T18:55:32.148Z,11.80
2018-11-27T18:58:00.524Z,13.47
2018-11-27T19:00:31.214Z,18.37
2018-11-27T19:03:00.880Z,14.60
2018-11-27T19:05:29.616Z,15.20
2018-11-27T19:07:57.981Z,13.20
2018-11-27T19:10:32.208Z,10.33
2018-11-27T19:13:01.366Z,12.77
2018-11-27T19:15:40.589Z,12.90
2018-11-27T19:18:17.218Z,13.87
2018-11-27T19:20:45.932Z,12.43
2018-11-27T19:23:15.690Z,11.97
2018-11-27T19:25:44.151Z,13.60
2018-11-27T19:28:12.714Z,15.67
2018-11-27T19:30:42.712Z,12.03
2018-11-27T19:33:11.811Z,12.10
2018-11-27T19:35:42.599Z,13.43
2018-11-27T19:38:12.285Z,12.63
2018-11-27T19:40:40.622Z,11.50
2018-11-27T19:43:09.199Z,11.83
2018-11-27T19:45:38.254Z,10.97
2018-11-27T19:48:08.110Z,13.30
2018-11-27T19:50:37.814Z,13.67
2018-11-27T19:53:11.954Z,12.27
2018-11-27T19:55:37.154Z,12.67
2018-11-27T19:58:07.347Z,15.00
2018-11-27T20:00:36.622Z,12.40
2018-11-27T20:03:05.637Z,13.47
2018-11-27T20:05:34.890Z,12.90
2018-11-27T20:08:03.936Z,12.30
2018-11-27T20:10:32.277Z,13.93
2018-11-27T20:13:01.672Z,14.10
2018-11-27T20:15:30.345Z,16.07
2018-11-27T20:17:58.923Z,16.30
2018-11-27T20:20:29.811Z,15.47
2018-11-27T20:22:58.453Z,13.83
2018-11-27T20:25:26.883Z,13.27
2018-11-27T20:27:56.266Z,14.73
2018-11-27T20:30:27.157Z,12.50
2018-11-27T20:33:01.100Z,13.50
2018-11-27T20:35:30.045Z,14.47
2018-11-27T20:37:59.356Z,15.27
2018-11-27T20:40:27.834Z,14.47
2018-11-27T20:42:56.222Z,13.87
2018-11-27T20:45:26.005Z,14.47
2018-11-27T20:48:04.163Z,17.37
2018-11-27T20:50:33.588Z,15.07
2018-11-27T20:53:02.977Z,18.53
2018-11-27T20:55:32.420Z,14.53
2018-11-27T20:58:00.968Z,16.27
2018-11-27T21:00:32.342Z,17.40
2018-11-27T21:03:01.671Z,17.40
2018-11-27T21:05:29.973Z,16.80
2018-11-27T21:07:59.995Z,16.57
2018-11-27T21:10:28.611Z,15.80
2018-11-27T21:12:57.147Z,15.63
2018-11-27T21:15:27.300Z,16.50
2018-11-27T21:17:56.451Z,16.97
2018-11-27T21:20:24.820Z,17.57
2018-11-27T21:22:53.154Z,17.10
2018-11-27T21:25:23.484Z,15.57
2018-11-27T21:27:58.163Z,16.73
2018-11-27T21:30:27.107Z,16.10
2018-11-27T21:32:55.442Z,17.07
2018-11-27T21:35:24.559Z,13.40
2018-11-27T21:37:52.890Z,13.73
2018-11-27T21:40:21.473Z,12.67
2018-11-27T21:42:50.405Z,12.90
2018-11-27T21:45:23.677Z,13.10
2018-11-27T21:47:52.613Z,13.87
2018-11-27T21:50:26.907Z,11.35
2018-11-27T21:52:55.346Z,13.00
2018-11-27T21:55:23.982Z,11.70
2018-11-27T21:57:53.060Z,13.77
2018-11-27T22:00:22.559Z,12.00
2018-11-27T22:02:51.038Z,11.77
2018-11-27T22:05:20.388Z,11.53
2018-11-27T22:07:48.757Z,11.70
2018-11-27T22:10:18.841Z,10.80
2018-11-27T22:12:49.266Z,11.20
2018-11-27T22:15:19.847Z,10.37
2018-11-27T22:17:48.155Z,11.10
2018-11-27T22:20:21.201Z,11.13
2018-11-27T22:22:45.881Z,11.57
2018-11-27T22:25:14.249Z,11.23
2018-11-27T22:27:42.645Z,10.97
2018-11-27T22:30:14.134Z,10.90
2018-11-27T22:32:44.678Z,11.37
2018-11-27T22:37:47.583Z,10.90
2018-11-27T22:40:18.677Z,12.03
2018-11-27T22:42:47.582Z,10.57
2018-11-27T22:45:23.012Z,10.50
2018-11-27T22:47:51.422Z,10.97
2018-11-27T22:50:19.812Z,12.83
2018-11-27T22:52:48.158Z,10.23
2018-11-27T22:55:16.554Z,11.90
2018-11-27T22:57:44.923Z,10.70
2018-11-27T23:00:26.819Z,11.97
2018-11-27T23:02:55.209Z,10.47
2018-11-27T23:05:23.578Z,10.67
2018-11-27T23:07:51.849Z,10.73
2018-11-27T23:10:20.175Z,10.27
2018-11-27T23:12:48.465Z,11.70
2018-11-27T23:15:17.965Z,11.23
2018-11-27T23:17:46.676Z,11.90
2018-11-27T23:20:15.875Z,12.70
2018-11-27T23:22:44.218Z,13.87
2018-11-27T23:25:13.394Z,10.67
2018-11-27T23:27:42.003Z,12.60
2018-11-27T23:30:15.305Z,14.60
2018-11-27T23:32:43.621Z,11.03
2018-11-27T23:35:11.984Z,12.80
2018-11-27T23:37:40.285Z,14.80
2018-11-27T23:40:13.945Z,11.53
2018-11-27T23:42:42.520Z,11.07
2018-11-27T23:45:12.869Z,11.90
2018-11-27T23:47:41.184Z,15.97
2018-11-27T23:50:11.306Z,11.53
2018-11-27T23:52:39.611Z,12.97
2018-11-27T23:55:08.970Z,14.27
2018-11-27T23:57:37.553Z,12.10
